Samsonville, Vermont
Current Conditions -  °F | °C
As of 3:15 AM on Saturday 25 Oct 2014 (Local Time) from KFSO Reporting Station
Clear Clear  
Wind Chill: 40°   Ceiling: Unl
Heat Index: 40°   Visibility: 10mi
Dew Point: 37°   Wind: 3mph
Humidity: 91%   Direction: 170°S
Pressure: 29.77"   Gusts: NA
Location:  44.8764°N, 72.758°W
Report Text: KFSO 250715Z AUTO 17003KT 10SM CLR 04/03 A2977 RMK AO2 T00440030
Loading
Personal Weather Stations






























Interactive Weather Map
Tropical Storm Tracking
New forecast layout! Learn more

10-Day Weather Forecast

Advertisements
Track Severe Weather on mobile